Time;durP1;ratioP1;P1;durP2;ratioP2;P2;SDS_P1;SDS_P2;PMS_P1;PMS_P2;Temp;Humidity;BMP_temperature;BMP_pressure;BME280_temperature;BME280_humidity;BME280_pressure;Samples;Min_cycle;Max_cycle;Signal;HPM_P1;HPM_P2
2022/10/26 00:00:35;;;;;;;13.95;9.00;;;10.80;99.90;;;;;;5053211;28;20126;-46
2022/10/26 00:03:00;;;;;;;15.80;8.63;;;10.80;99.90;;;;;;5052803;28;20041;-43
2022/10/26 00:05:26;;;;;;;15.43;9.90;;;10.80;99.90;;;;;;5053218;28;20044;-45
2022/10/26 00:07:52;;;;;;;16.67;9.02;;;10.70;99.90;;;;;;5052943;28;20132;-43
2022/10/26 00:10:20;;;;;;;16.45;8.70;;;10.80;99.90;;;;;;5053050;28;20082;-45
2022/10/26 00:12:49;;;;;;;13.82;8.88;;;10.80;99.90;;;;;;5052769;28;20125;-43
2022/10/26 00:15:15;;;;;;;15.77;9.18;;;10.50;99.90;;;;;;5051946;28;20029;-44
2022/10/26 00:17:40;;;;;;;14.35;8.43;;;10.60;99.90;;;;;;5052979;28;20523;-44
2022/10/26 00:20:06;;;;;;;15.00;8.77;;;10.50;99.90;;;;;;5052857;28;20033;-43
2022/10/26 00:22:32;;;;;;;15.48;8.57;;;10.60;99.90;;;;;;5051768;28;20033;-44
2022/10/26 00:24:58;;;;;;;14.02;8.15;;;10.50;99.90;;;;;;5050604;28;20385;-43
2022/10/26 00:27:23;;;;;;;16.70;8.60;;;10.40;99.90;;;;;;5052687;28;20480;-43
2022/10/26 00:29:49;;;;;;;13.85;8.23;;;10.50;99.90;;;;;;5052779;28;20029;-44
2022/10/26 00:32:15;;;;;;;13.88;8.10;;;10.60;99.90;;;;;;5052906;28;20044;-43
2022/10/26 00:34:40;;;;;;;13.18;7.90;;;10.30;99.90;;;;;;5052639;28;20044;-43
2022/10/26 00:37:06;;;;;;;15.45;8.75;;;10.30;99.90;;;;;;5052173;28;20037;-42
2022/10/26 00:39:31;;;;;;;13.70;7.82;;;10.50;99.90;;;;;;5052229;28;20078;-43
2022/10/26 00:41:57;;;;;;;11.85;7.93;;;10.40;99.90;;;;;;5052652;28;20120;-44
2022/10/26 00:44:47;;;;;;;14.48;8.23;;;10.50;99.90;;;;;;5051736;28;20052;-44
2022/10/26 00:47:25;;;;;;;17.80;8.38;;;10.50;99.90;;;;;;5052173;28;20049;-43
2022/10/26 00:49:54;;;;;;;11.95;7.47;;;10.40;99.90;;;;;;5050927;28;20379;-43
2022/10/26 00:52:20;;;;;;;16.25;8.20;;;10.40;99.90;;;;;;5052159;28;20124;-43
2022/10/26 00:54:46;;;;;;;12.77;8.13;;;10.50;99.90;;;;;;5050993;28;20526;-43
2022/10/26 00:57:14;;;;;;;13.38;8.23;;;10.40;99.90;;;;;;5052179;28;20045;-43
2022/10/26 00:59:41;;;;;;;15.40;7.85;;;10.20;99.90;;;;;;5052128;28;20048;-43
2022/10/26 01:02:07;;;;;;;15.40;8.07;;;10.40;99.90;;;;;;5052075;28;20365;-43
2022/10/26 01:04:34;;;;;;;13.88;8.45;;;10.30;99.90;;;;;;5051925;28;20048;-43
2022/10/26 01:07:02;;;;;;;13.27;7.80;;;10.50;99.90;;;;;;5051905;28;20040;-43
2022/10/26 01:09:28;;;;;;;16.42;7.95;;;10.30;99.90;;;;;;5048003;28;20111;-43
2022/10/26 01:11:54;;;;;;;13.45;8.20;;;10.30;99.90;;;;;;5050299;28;20126;-46
2022/10/26 01:14:20;;;;;;;12.05;7.38;;;10.40;99.90;;;;;;5051447;28;20092;-43
2022/10/26 01:16:51;;;;;;;14.90;8.00;;;10.20;99.90;;;;;;5051902;28;20111;-43
2022/10/26 01:19:44;;;;;;;15.10;8.40;;;10.30;99.90;;;;;;5051420;28;20048;-43
2022/10/26 01:22:23;;;;;;;18.55;8.43;;;10.20;99.90;;;;;;5051319;28;20037;-42
2022/10/26 01:25:15;;;;;;;16.67;8.88;;;10.30;99.90;;;;;;5051695;28;20040;-45
2022/10/26 01:27:48;;;;;;;16.27;8.32;;;10.30;99.90;;;;;;5051568;28;20079;-43
2022/10/26 01:30:29;;;;;;;15.05;9.43;;;10.10;99.90;;;;;;5051571;28;20041;-44
2022/10/26 01:33:20;;;;;;;13.90;8.98;;;10.30;99.90;;;;;;5051415;28;20128;-42
2022/10/26 01:36:05;;;;;;;14.20;8.80;;;10.10;99.90;;;;;;5051216;28;20048;-44
2022/10/26 01:38:49;;;;;;;18.75;9.95;;;10.00;99.90;;;;;;5051451;28;20041;-43
2022/10/26 01:41:30;;;;;;;16.38;9.60;;;10.00;99.90;;;;;;5051468;28;20037;-44
2022/10/26 01:44:12;;;;;;;14.93;9.77;;;10.10;99.90;;;;;;5050700;28;20126;-45
2022/10/26 01:46:42;;;;;;;18.35;9.35;;;10.20;99.90;;;;;;5050858;28;20045;-43
2022/10/26 01:49:13;;;;;;;13.48;9.65;;;10.10;99.90;;;;;;5050939;28;20056;-45
2022/10/26 01:51:42;;;;;;;17.30;9.95;;;9.90;99.90;;;;;;5049588;28;20061;-45
2022/10/26 01:54:08;;;;;;;17.60;10.85;;;9.90;99.90;;;;;;5047991;28;20170;-45
2022/10/26 01:56:42;;;;;;;16.45;10.05;;;10.00;99.90;;;;;;5051036;28;20077;-43
2022/10/26 01:59:27;;;;;;;16.52;10.07;;;9.90;99.90;;;;;;5050436;28;20042;-43
2022/10/26 02:02:04;;;;;;;17.65;10.82;;;9.90;99.90;;;;;;5050839;28;20029;-43
2022/10/26 02:04:42;;;;;;;16.98;10.45;;;10.00;99.90;;;;;;5051043;28;20033;-43
2022/10/26 02:07:28;;;;;;;17.30;11.73;;;9.90;99.90;;;;;;5050398;28;20037;-44
2022/10/26 02:10:15;;;;;;;14.98;11.38;;;9.80;99.90;;;;;;5050674;28;20041;-42
2022/10/26 02:12:46;;;;;;;17.13;11.10;;;10.00;99.90;;;;;;5050212;28;20083;-43
2022/10/26 02:15:24;;;;;;;17.40;11.80;;;10.00;99.90;;;;;;5049612;28;20507;-43
2022/10/26 02:17:58;;;;;;;17.48;12.05;;;9.90;99.90;;;;;;5049573;28;20504;-43
2022/10/26 02:20:32;;;;;;;18.13;12.43;;;10.00;99.90;;;;;;5050605;28;20566;-43
2022/10/26 02:23:02;;;;;;;18.20;12.10;;;9.80;99.90;;;;;;5050295;28;20043;-43
2022/10/26 02:25:32;;;;;;;18.25;12.57;;;10.10;99.90;;;;;;5049423;28;20080;-43
2022/10/26 02:28:05;;;;;;;20.75;12.18;;;9.80;99.90;;;;;;5050804;28;20132;-44
2022/10/26 02:30:33;;;;;;;19.43;13.07;;;9.90;99.90;;;;;;5050553;28;20029;-43
2022/10/26 02:33:01;;;;;;;20.50;13.02;;;10.10;99.90;;;;;;5050626;28;20033;-43
2022/10/26 02:35:30;;;;;;;20.30;12.93;;;10.00;99.90;;;;;;5050273;28;20476;-42
2022/10/26 02:38:00;;;;;;;20.02;13.52;;;10.10;99.90;;;;;;5050432;28;20044;-44
2022/10/26 02:40:28;;;;;;;24.08;13.35;;;10.20;99.90;;;;;;5047236;28;20124;-43
2022/10/26 02:42:58;;;;;;;19.95;13.18;;;9.90;99.90;;;;;;5049821;28;20049;-43
2022/10/26 02:45:30;;;;;;;22.00;13.70;;;10.30;99.90;;;;;;5050134;28;20086;-43
2022/10/26 02:47:57;;;;;;;18.88;12.82;;;10.00;99.90;;;;;;5048605;28;20044;-44
2022/10/26 02:50:30;;;;;;;20.30;13.57;;;10.20;99.90;;;;;;5049704;28;20171;-43
2022/10/26 02:53:16;;;;;;;21.45;12.55;;;10.20;99.90;;;;;;5050363;28;20099;-45
2022/10/26 02:55:47;;;;;;;22.45;13.60;;;9.90;99.90;;;;;;5050083;28;20384;-45
2022/10/26 02:58:21;;;;;;;19.67;12.10;;;9.90;99.90;;;;;;5050203;28;20972;-43
2022/10/26 03:00:49;;;;;;;22.05;13.48;;;10.10;99.90;;;;;;5049703;28;20140;-43
2022/10/26 03:03:16;;;;;;;27.23;13.60;;;10.00;99.90;;;;;;5050107;28;20041;-43
2022/10/26 03:05:42;;;;;;;22.98;13.68;;;10.00;99.90;;;;;;5049624;28;20049;-44
2022/10/26 03:08:08;;;;;;;20.33;13.32;;;10.00;99.90;;;;;;5049850;28;20033;-43
2022/10/26 03:10:40;;;;;;;20.02;12.68;;;10.20;99.90;;;;;;5050024;28;20047;-42
2022/10/26 03:13:06;;;;;;;23.25;14.00;;;9.90;99.90;;;;;;5049278;28;20112;-45
2022/10/26 03:15:31;;;;;;;21.35;13.13;;;10.20;99.90;;;;;;5049930;28;20121;-43
2022/10/26 03:17:57;;;;;;;21.67;13.02;;;9.90;99.90;;;;;;5049847;28;20045;-42
2022/10/26 03:20:23;;;;;;;20.70;12.52;;;9.90;99.90;;;;;;5049846;28;20185;-43
2022/10/26 03:22:48;;;;;;;24.05;13.60;;;10.20;99.90;;;;;;5049457;28;20045;-43
2022/10/26 03:25:14;;;;;;;21.33;13.30;;;10.20;99.90;;;;;;5048542;28;20041;-44
2022/10/26 03:27:40;;;;;;;17.33;12.60;;;9.90;99.90;;;;;;5049888;28;20048;-42
2022/10/26 03:30:07;;;;;;;20.25;12.65;;;10.10;99.90;;;;;;5048913;28;20044;-43
2022/10/26 03:32:32;;;;;;;20.77;13.55;;;10.20;99.90;;;;;;5049338;28;20378;-44
2022/10/26 03:34:58;;;;;;;24.73;13.52;;;10.00;99.90;;;;;;5053728;28;20036;-43
2022/10/26 03:37:24;;;;;;;23.58;13.73;;;9.90;99.90;;;;;;5053576;28;20124;-44
2022/10/26 03:39:50;;;;;;;22.05;13.73;;;10.30;99.90;;;;;;5053715;28;20068;-43
2022/10/26 03:42:15;;;;;;;22.33;14.00;;;10.00;99.90;;;;;;5053413;28;20040;-43
2022/10/26 03:44:41;;;;;;;29.90;14.60;;;10.20;99.90;;;;;;5052909;28;20109;-44
2022/10/26 03:47:07;;;;;;;25.20;14.07;;;10.10;99.90;;;;;;5053496;28;20037;-44
2022/10/26 03:49:32;;;;;;;21.95;14.02;;;9.80;99.90;;;;;;5053024;28;20134;-43
2022/10/26 03:51:58;;;;;;;20.23;12.75;;;9.80;99.90;;;;;;5053748;28;20392;-43
2022/10/26 03:54:24;;;;;;;21.27;14.40;;;9.90;99.90;;;;;;5053439;28;20033;-43
2022/10/26 03:56:51;;;;;;;20.75;14.40;;;9.80;99.90;;;;;;5053127;28;20041;-42
2022/10/26 03:59:17;;;;;;;19.05;12.95;;;10.10;99.90;;;;;;5053456;28;20076;-44
2022/10/26 04:01:43;;;;;;;22.73;14.25;;;9.80;99.90;;;;;;5053394;28;20076;-43
2022/10/26 04:04:08;;;;;;;25.45;14.38;;;10.00;99.90;;;;;;5051956;28;20041;-44
2022/10/26 04:06:34;;;;;;;25.60;14.45;;;9.90;99.90;;;;;;5051937;28;20032;-44
2022/10/26 04:09:01;;;;;;;25.52;13.90;;;10.30;99.90;;;;;;5050437;28;20397;-43
2022/10/26 04:11:29;;;;;;;22.10;14.55;;;9.90;99.90;;;;;;5051879;28;20041;-43
2022/10/26 04:13:58;;;;;;;26.48;15.10;;;10.00;99.90;;;;;;5052510;28;20036;-44
2022/10/26 04:16:24;;;;;;;22.52;13.82;;;10.30;99.90;;;;;;5052874;28;20090;-43
2022/10/26 04:18:50;;;;;;;21.80;14.50;;;10.30;99.90;;;;;;5052953;28;20044;-42
2022/10/26 04:21:16;;;;;;;20.73;13.60;;;10.00;99.90;;;;;;5051560;28;20033;-43
2022/10/26 04:23:41;;;;;;;23.20;14.23;;;10.10;99.90;;;;;;5053048;28;20063;-43
2022/10/26 04:26:07;;;;;;;25.15;14.05;;;10.10;99.90;;;;;;5053007;28;20033;-44
2022/10/26 04:28:33;;;;;;;20.40;13.45;;;10.00;99.90;;;;;;5051402;28;20041;-44
2022/10/26 04:30:59;;;;;;;23.67;13.82;;;10.20;99.90;;;;;;5052745;28;20102;-44
2022/10/26 04:33:24;;;;;;;20.23;13.80;;;10.20;99.90;;;;;;5052413;28;21414;-44
2022/10/26 04:35:50;;;;;;;21.63;13.82;;;10.20;99.90;;;;;;5052533;28;20128;-43
2022/10/26 04:38:16;;;;;;;21.27;13.35;;;10.10;99.90;;;;;;5051145;28;20446;-43
2022/10/26 04:40:41;;;;;;;22.92;14.10;;;10.40;99.90;;;;;;5052489;28;20036;-43
2022/10/26 04:43:07;;;;;;;20.67;12.68;;;10.10;99.90;;;;;;5051930;28;20033;-44
2022/10/26 04:45:33;;;;;;;24.25;13.40;;;10.40;99.90;;;;;;5052472;28;20373;-43
2022/10/26 04:48:10;;;;;;;18.85;13.27;;;10.10;99.90;;;;;;5052390;28;20048;-44
2022/10/26 04:50:36;;;;;;;20.75;12.98;;;10.40;99.90;;;;;;5050601;28;20098;-44
2022/10/26 04:53:03;;;;;;;21.33;13.18;;;10.10;99.90;;;;;;5052291;28;20382;-45
2022/10/26 04:55:29;;;;;;;19.98;12.73;;;10.20;99.90;;;;;;5049137;28;20041;-43
2022/10/26 04:57:54;;;;;;;21.77;13.43;;;10.20;99.90;;;;;;5052297;28;20053;-44
2022/10/26 05:00:20;;;;;;;21.45;13.52;;;10.40;99.90;;;;;;5052160;28;20472;-44
2022/10/26 05:02:46;;;;;;;21.35;13.93;;;10.20;99.90;;;;;;5050669;28;20045;-42
2022/10/26 05:05:11;;;;;;;22.15;13.20;;;10.20;99.90;;;;;;5051820;28;20040;-45
2022/10/26 05:07:37;;;;;;;20.20;13.05;;;10.60;99.90;;;;;;5052151;28;20037;-45
2022/10/26 05:10:03;;;;;;;20.88;13.20;;;10.30;99.90;;;;;;5051986;28;20136;-44
2022/10/26 05:12:29;;;;;;;24.50;13.73;;;10.30;99.90;;;;;;5050335;28;20037;-44
2022/10/26 05:14:57;;;;;;;21.48;12.52;;;10.50;99.90;;;;;;5051149;28;20098;-43
2022/10/26 05:17:24;;;;;;;19.38;12.60;;;10.30;99.90;;;;;;5051548;28;20044;-43
2022/10/26 05:19:54;;;;;;;18.08;12.70;;;10.40;99.90;;;;;;5051722;28;20118;-44
2022/10/26 05:22:29;;;;;;;22.25;12.60;;;10.50;99.90;;;;;;5050315;28;20033;-43
2022/10/26 05:24:54;;;;;;;24.40;12.95;;;10.50;99.90;;;;;;5051160;28;20041;-43
2022/10/26 05:27:20;;;;;;;19.80;13.02;;;10.70;99.90;;;;;;5050242;28;20045;-44
2022/10/26 05:29:46;;;;;;;22.90;13.25;;;10.40;99.90;;;;;;5051621;28;20125;-47
2022/10/26 05:32:11;;;;;;;21.60;13.40;;;10.70;99.90;;;;;;5051589;28;20073;-44
2022/10/26 05:34:37;;;;;;;17.70;12.15;;;10.80;99.90;;;;;;5051412;28;20476;-43
2022/10/26 05:37:02;;;;;;;25.17;13.25;;;10.50;99.90;;;;;;5051622;28;20037;-46
2022/10/26 05:39:28;;;;;;;20.10;12.55;;;10.50;99.90;;;;;;5049855;28;20044;-43
2022/10/26 05:41:54;;;;;;;21.83;14.05;;;10.80;99.90;;;;;;5051330;28;20037;-44
2022/10/26 05:44:20;;;;;;;17.88;12.80;;;10.60;99.90;;;;;;5050943;28;20090;-43
2022/10/26 05:46:46;;;;;;;19.52;12.60;;;10.50;99.90;;;;;;5051352;28;20033;-43
2022/10/26 05:49:12;;;;;;;20.80;13.45;;;10.80;99.90;;;;;;5049038;28;20068;-43
2022/10/26 05:51:38;;;;;;;19.75;12.43;;;10.80;99.90;;;;;;5051211;28;20041;-42
2022/10/26 05:54:04;;;;;;;20.73;13.23;;;10.50;99.90;;;;;;5051153;28;20579;-44
2022/10/26 05:56:40;;;;;;;21.15;12.90;;;10.50;99.90;;;;;;5050546;28;20060;-43
2022/10/26 05:59:12;;;;;;;22.73;13.20;;;10.60;99.90;;;;;;5049506;28;20045;-43
2022/10/26 06:01:59;;;;;;;21.85;13.05;;;10.70;99.90;;;;;;5050775;28;20037;-43
2022/10/26 06:04:27;;;;;;;20.20;12.93;;;10.60;99.90;;;;;;5050906;28;20036;-43
2022/10/26 06:06:54;;;;;;;17.98;12.02;;;11.00;99.90;;;;;;5050941;28;20186;-43
2022/10/26 06:09:20;;;;;;;21.63;12.60;;;10.90;99.90;;;;;;5050867;28;20648;-44
2022/10/26 06:11:46;;;;;;;17.48;13.05;;;10.60;99.90;;;;;;5049733;28;20040;-43
2022/10/26 06:14:12;;;;;;;20.60;12.93;;;10.60;99.90;;;;;;5048136;28;20029;-44
2022/10/26 06:17:17;;;;;;;17.48;11.85;;;10.80;99.90;;;;;;5050684;28;20041;-43
2022/10/26 06:20:04;;;;;;;17.60;12.13;;;10.60;99.90;;;;;;5050324;28;20036;-45
2022/10/26 06:22:45;;;;;;;18.38;11.88;;;10.70;99.90;;;;;;5049506;28;20037;-45
2022/10/26 06:25:11;;;;;;;17.77;11.77;;;10.70;99.90;;;;;;5047560;28;20496;-44
2022/10/26 06:28:03;;;;;;;15.98;11.45;;;10.70;99.90;;;;;;5050561;28;20056;-44
2022/10/26 06:30:28;;;;;;;19.83;11.43;;;10.70;99.90;;;;;;5049584;28;20079;-43
2022/10/26 06:32:55;;;;;;;18.67;12.40;;;11.10;99.90;;;;;;5050447;28;20447;-43
2022/10/26 06:35:39;;;;;;;18.67;12.15;;;10.70;99.90;;;;;;5048140;28;20044;-44
2022/10/26 06:38:17;;;;;;;17.20;11.55;;;11.00;99.90;;;;;;5048782;28;20043;-45
2022/10/26 06:40:48;;;;;;;21.85;11.80;;;10.80;99.90;;;;;;5038611;28;20045;-44
2022/10/26 06:43:27;;;;;;;22.13;11.82;;;10.70;99.90;;;;;;5039468;28;20079;-46
2022/10/26 06:46:05;;;;;;;21.25;12.52;;;10.90;99.90;;;;;;5039384;28;20037;-43
2022/10/26 06:48:42;;;;;;;18.17;11.30;;;10.70;99.90;;;;;;5039096;28;20123;-45
2022/10/26 06:51:13;;;;;;;17.67;10.88;;;10.80;99.90;;;;;;5041460;28;20138;-44
2022/10/26 06:54:04;;;;;;;19.48;11.98;;;11.00;99.90;;;;;;5041075;28;20155;-43
2022/10/26 06:56:30;;;;;;;15.60;11.30;;;10.80;99.90;;;;;;5040453;28;20102;-44
2022/10/26 06:59:03;;;;;;;20.13;11.40;;;10.80;99.90;;;;;;5040712;28;20040;-44
2022/10/26 07:01:28;;;;;;;17.48;11.80;;;10.90;99.90;;;;;;5037692;28;20124;-45
2022/10/26 07:03:54;;;;;;;19.60;11.90;;;10.80;99.90;;;;;;5040436;28;20538;-45
2022/10/26 07:06:20;;;;;;;19.80;10.90;;;11.00;99.90;;;;;;5038789;28;20219;-43
2022/10/26 07:08:45;;;;;;;15.77;11.48;;;11.30;99.90;;;;;;5039601;28;20128;-44
2022/10/26 07:11:11;;;;;;;18.02;12.10;;;10.90;99.90;;;;;;5040262;28;20044;-42
2022/10/26 07:13:37;;;;;;;18.27;11.43;;;11.00;99.90;;;;;;5038494;28;20033;-43
2022/10/26 07:16:02;;;;;;;19.08;12.13;;;11.00;99.90;;;;;;5040134;28;20033;-47
2022/10/26 07:18:28;;;;;;;20.30;11.98;;;11.00;99.90;;;;;;5040809;28;20052;-43
2022/10/26 07:20:54;;;;;;;16.95;10.85;;;11.10;99.90;;;;;;5040948;28;20080;-45
2022/10/26 07:23:21;;;;;;;17.88;11.68;;;11.40;99.90;;;;;;5040398;28;20064;-43
2022/10/26 07:25:47;;;;;;;16.90;10.80;;;11.20;99.90;;;;;;5038469;28;20040;-45
2022/10/26 07:28:13;;;;;;;17.88;11.77;;;11.50;99.90;;;;;;5039949;28;20418;-43
2022/10/26 07:30:39;;;;;;;18.02;11.20;;;11.30;99.90;;;;;;5037584;28;20503;-44
2022/10/26 07:33:08;;;;;;;15.45;10.43;;;11.70;99.90;;;;;;5034429;28;20029;-45
2022/10/26 07:35:34;;;;;;;14.60;11.45;;;11.70;99.90;;;;;;5036039;28;20063;-43
2022/10/26 07:38:00;;;;;;;15.88;9.88;;;11.90;99.90;;;;;;5039784;28;20036;-44
2022/10/26 07:40:26;;;;;;;14.60;9.45;;;11.80;99.90;;;;;;5037720;28;20091;-43
2022/10/26 07:42:56;;;;;;;14.00;9.52;;;11.90;99.90;;;;;;5036918;28;20088;-44
2022/10/26 07:45:22;;;;;;;15.27;9.40;;;12.10;99.90;;;;;;5036784;28;20041;-43
2022/10/26 07:47:48;;;;;;;14.40;9.15;;;12.10;99.90;;;;;;5038630;28;20051;-45
2022/10/26 07:50:15;;;;;;;13.73;8.85;;;12.10;99.90;;;;;;5036995;28;20057;-45
2022/10/26 07:52:41;;;;;;;12.95;8.30;;;12.20;99.90;;;;;;5030550;28;20041;-45
2022/10/26 07:55:10;;;;;;;15.68;8.32;;;12.00;99.90;;;;;;5033818;28;20446;-44
2022/10/26 07:57:36;;;;;;;14.20;9.00;;;12.00;99.90;;;;;;5039736;28;20128;-44
2022/10/26 08:00:05;;;;;;;13.32;8.50;;;12.10;99.90;;;;;;5039870;28;20147;-45
2022/10/26 08:02:31;;;;;;;14.73;8.15;;;12.00;99.90;;;;;;5039325;28;20044;-47
2022/10/26 08:05:00;;;;;;;13.05;9.23;;;12.00;99.90;;;;;;5040288;28;20499;-46
2022/10/26 08:07:26;;;;;;;16.08;7.90;;;12.10;99.90;;;;;;5038855;28;20033;-44
2022/10/26 08:09:52;;;;;;;14.32;9.23;;;12.10;99.90;;;;;;5039822;28;23023;-43
2022/10/26 08:12:18;;;;;;;12.23;8.77;;;12.20;99.90;;;;;;5038965;28;20037;-44
2022/10/26 08:14:44;;;;;;;14.05;9.20;;;12.30;99.90;;;;;;5038311;28;20040;-45
2022/10/26 08:17:10;;;;;;;12.80;7.70;;;12.40;99.90;;;;;;5036804;28;20041;-44
2022/10/26 08:19:36;;;;;;;13.85;7.72;;;12.40;99.90;;;;;;5043517;28;20035;-44
2022/10/26 08:22:02;;;;;;;13.20;8.60;;;12.40;99.90;;;;;;5043400;28;20045;-44
2022/10/26 08:24:28;;;;;;;12.20;7.63;;;12.60;99.90;;;;;;5041324;28;20036;-45
2022/10/26 08:26:54;;;;;;;12.05;7.47;;;12.80;99.90;;;;;;5039558;28;20039;-47
2022/10/26 08:29:20;;;;;;;11.60;8.00;;;12.70;99.90;;;;;;5042686;28;20037;-47
2022/10/26 08:31:47;;;;;;;15.88;7.25;;;12.90;99.90;;;;;;5041708;28;20037;-45
2022/10/26 08:34:12;;;;;;;11.80;7.25;;;13.00;99.90;;;;;;5043230;28;20033;-44
2022/10/26 08:36:38;;;;;;;13.75;6.47;;;13.30;99.90;;;;;;5042988;28;20199;-44
2022/10/26 08:39:04;;;;;;;11.13;6.85;;;13.40;99.90;;;;;;5043875;28;20464;-46
2022/10/26 08:41:39;;;;;;;9.90;5.93;;;13.40;99.90;;;;;;5042139;28;20043;-46
2022/10/26 08:44:23;;;;;;;9.32;5.95;;;13.70;99.90;;;;;;5042401;28;20546;-44
2022/10/26 08:46:50;;;;;;;;;;;13.70;99.90;;;;;;5041412;28;20456;-45
2022/10/26 08:49:24;;;;;;;9.85;5.25;;;13.80;99.90;;;;;;5040886;28;20387;-47
2022/10/26 08:51:53;;;;;;;11.00;5.55;;;14.10;99.90;;;;;;5041745;28;20119;-45
2022/10/26 08:54:33;;;;;;;9.85;5.22;;;14.10;99.90;;;;;;5042573;28;21924;-44
2022/10/26 08:57:01;;;;;;;7.95;4.97;;;14.30;99.90;;;;;;5036055;28;20033;-46
2022/10/26 08:59:42;;;;;;;11.63;5.10;;;14.30;99.90;;;;;;5036833;28;20057;-44
2022/10/26 09:02:12;;;;;;;10.07;5.30;;;14.50;99.90;;;;;;5038690;28;20119;-46
2022/10/26 09:04:38;;;;;;;10.35;5.60;;;14.50;99.90;;;;;;5042190;28;20102;-46
2022/10/26 09:07:21;;;;;;;11.05;4.95;;;14.60;99.90;;;;;;5038805;28;23076;-46
2022/10/26 09:10:02;;;;;;;8.63;4.70;;;14.70;99.90;;;;;;5040673;28;20124;-44
2022/10/26 09:12:38;;;;;;;11.95;4.63;;;14.80;99.90;;;;;;5040335;28;21047;-44
2022/10/26 09:15:07;;;;;;;10.50;4.88;;;15.10;99.90;;;;;;5039516;28;20065;-45
2022/10/26 09:17:54;;;;;;;7.03;4.07;;;15.20;99.90;;;;;;5039812;28;20059;-44
2022/10/26 09:20:45;;;;;;;8.60;4.10;;;15.50;99.90;;;;;;5040015;28;20036;-45
2022/10/26 09:23:44;;;;;;;11.50;4.43;;;15.60;99.90;;;;;;5040351;28;20049;-45
2022/10/26 09:26:13;;;;;;;9.80;4.25;;;15.80;99.90;;;;;;5041293;28;20123;-48
2022/10/26 09:28:40;;;;;;;7.18;3.53;;;15.90;99.90;;;;;;5039122;28;20049;-44
2022/10/26 09:31:12;;;;;;;6.47;3.30;;;16.00;99.90;;;;;;5039621;28;20104;-44
2022/10/26 09:33:39;;;;;;;9.57;4.20;;;16.00;99.90;;;;;;5044083;28;20041;-46
2022/10/26 09:36:13;;;;;;;9.05;4.35;;;16.00;99.90;;;;;;5046407;28;20041;-46
2022/10/26 09:38:42;;;;;;;9.23;3.65;;;16.00;99.90;;;;;;5048443;28;20416;-44
2022/10/26 09:41:23;;;;;;;7.20;3.17;;;16.10;99.90;;;;;;5049094;28;20053;-45
2022/10/26 09:44:18;;;;;;;9.38;3.55;;;16.10;99.90;;;;;;5050906;28;20362;-44
2022/10/26 09:47:00;;;;;;;6.55;3.80;;;16.10;99.90;;;;;;5050336;28;20116;-44
2022/10/26 09:49:53;;;;;;;9.70;3.88;;;16.00;99.90;;;;;;5050399;28;20063;-47
2022/10/26 09:52:19;;;;;;;9.82;4.05;;;16.00;99.90;;;;;;5050914;28;20554;-43
2022/10/26 09:54:44;;;;;;;7.43;3.75;;;16.00;99.90;;;;;;5049758;28;20045;-44
2022/10/26 09:57:14;;;;;;;8.82;4.32;;;16.10;99.90;;;;;;5051018;28;20033;-45
2022/10/26 09:59:40;;;;;;;10.93;4.07;;;16.30;99.90;;;;;;5051093;28;20041;-44
2022/10/26 10:02:38;;;;;;;10.70;4.28;;;16.40;99.90;;;;;;5050967;28;20037;-45
2022/10/26 10:05:25;;;;;;;11.07;3.78;;;16.50;99.90;;;;;;5050180;28;20132;-46
2022/10/26 10:07:51;;;;;;;9.43;3.67;;;16.70;99.90;;;;;;5050988;28;20049;-48
2022/10/26 10:10:21;;;;;;;8.82;3.42;;;16.80;99.90;;;;;;5051160;28;20480;-46
2022/10/26 10:12:51;;;;;;;9.55;3.58;;;17.00;99.90;;;;;;5050922;28;20487;-47
2022/10/26 10:15:22;;;;;;;7.50;3.40;;;17.10;99.90;;;;;;5050016;28;20499;-46
2022/10/26 10:17:50;;;;;;;7.47;3.22;;;17.30;99.90;;;;;;5050571;28;20041;-46
2022/10/26 10:20:27;;;;;;;8.27;3.20;;;17.40;99.90;;;;;;5050102;28;20033;-45
2022/10/26 10:22:58;;;;;;;7.45;3.08;;;17.50;99.90;;;;;;5050920;28;20076;-45
2022/10/26 10:25:42;;;;;;;6.38;3.13;;;17.60;99.90;;;;;;5050724;28;20130;-42
2022/10/26 10:28:21;;;;;;;7.87;3.37;;;17.50;99.90;;;;;;5047194;28;20045;-46
2022/10/26 10:30:58;;;;;;;6.07;3.20;;;17.40;99.90;;;;;;5048787;28;20742;-49
2022/10/26 10:33:54;;;;;;;8.20;3.55;;;17.30;99.90;;;;;;5047315;28;20044;-47
2022/10/26 10:36:22;;;;;;;6.45;3.47;;;17.40;99.90;;;;;;5037403;28;20048;-45
2022/10/26 10:38:49;;;;;;;7.63;3.42;;;17.40;99.90;;;;;;5042798;28;20029;-45
2022/10/26 10:41:19;;;;;;;6.40;3.08;;;17.20;99.90;;;;;;5046367;28;20045;-45
2022/10/26 10:44:05;;;;;;;8.23;3.17;;;17.30;99.90;;;;;;5046107;28;20048;-46
2022/10/26 10:46:31;;;;;;;7.50;3.60;;;17.10;99.90;;;;;;5037684;28;20049;-46
2022/10/26 10:49:03;;;;;;;7.80;3.70;;;17.10;99.90;;;;;;5043588;28;20056;-45
2022/10/26 10:51:37;;;;;;;8.77;3.30;;;17.20;99.90;;;;;;5036613;28;20049;-48
2022/10/26 10:54:04;;;;;;;8.32;3.53;;;17.40;99.90;;;;;;5040199;28;20519;-43
2022/10/26 10:56:52;;;;;;;8.93;3.45;;;17.60;99.90;;;;;;5044807;28;20472;-43
2022/10/26 10:59:41;;;;;;;7.32;2.97;;;17.70;99.90;;;;;;5040618;28;20130;-44
2022/10/26 11:02:33;;;;;;;8.80;3.22;;;17.80;99.90;;;;;;5048626;28;20037;-43
2022/10/26 11:05:25;;;;;;;5.97;2.72;;;17.80;99.90;;;;;;5045940;28;20041;-45
2022/10/26 11:08:01;;;;;;;7.18;3.03;;;17.90;99.90;;;;;;5042615;28;20067;-44
2022/10/26 11:10:32;;;;;;;8.00;3.28;;;18.10;99.90;;;;;;5043191;28;20467;-47
2022/10/26 11:13:00;;;;;;;7.65;2.80;;;18.30;99.90;;;;;;5047607;28;20041;-45
2022/10/26 11:15:30;;;;;;;6.57;3.10;;;18.40;99.90;;;;;;5046944;28;20029;-44
2022/10/26 11:18:37;;;;;;;7.18;2.80;;;18.50;99.90;;;;;;5042684;28;20049;-44
2022/10/26 11:21:13;;;;;;;7.10;2.70;;;18.70;99.90;;;;;;5044304;28;20115;-44
2022/10/26 11:24:11;;;;;;;9.68;3.35;;;19.00;99.90;;;;;;5046981;28;20033;-46
2022/10/26 11:26:48;;;;;;;6.63;2.72;;;19.10;99.90;;;;;;5044373;28;20477;-45
2022/10/26 11:29:45;;;;;;;7.53;3.00;;;19.30;99.90;;;;;;5029765;28;20060;-46
2022/10/26 11:32:27;;;;;;;10.15;2.63;;;19.50;99.90;;;;;;5031229;28;20139;-44
2022/10/26 11:35:01;;;;;;;7.45;3.03;;;19.70;99.90;;;;;;5038183;28;20064;-46
2022/10/26 11:37:31;;;;;;;6.75;2.50;;;19.90;99.90;;;;;;5040408;28;20039;-44
2022/10/26 11:40:13;;;;;;;6.47;2.63;;;20.10;99.90;;;;;;5038397;28;20045;-45
2022/10/26 11:42:49;;;;;;;8.32;2.53;;;20.10;99.90;;;;;;5038506;28;20380;-45
2022/10/26 11:45:24;;;;;;;14.27;2.83;;;20.20;99.90;;;;;;5039333;28;20037;-45
2022/10/26 11:48:21;;;;;;;6.90;2.58;;;20.30;99.90;;;;;;5038782;28;20519;-45
2022/10/26 11:50:56;;;;;;;7.13;2.42;;;20.30;99.90;;;;;;5036273;28;20052;-44
2022/10/26 11:53:41;;;;;;;8.30;2.58;;;20.40;99.90;;;;;;5038045;28;20045;-45
2022/10/26 11:56:12;;;;;;;;;;;20.50;99.90;;;;;;5044155;28;20025;-44
2022/10/26 11:58:38;;;;;;;8.57;2.60;;;20.60;99.90;;;;;;5044253;28;19962;-45
2022/10/26 12:01:09;;;;;;;8.70;2.75;;;20.50;99.90;;;;;;5040711;28;20095;-45
2022/10/26 12:03:45;;;;;;;8.13;2.47;;;20.40;99.90;;;;;;5039328;28;20079;-47
2022/10/26 12:06:15;;;;;;;10.55;2.50;;;20.50;99.90;;;;;;5043502;28;20045;-47
2022/10/26 12:08:52;;;;;;;8.45;2.90;;;20.60;99.90;;;;;;5043714;28;20044;-45
2022/10/26 12:11:20;;;;;;;7.03;3.00;;;20.50;99.90;;;;;;5043541;28;20041;-45
2022/10/26 12:13:55;;;;;;;7.45;3.10;;;20.30;99.90;;;;;;5042299;28;20044;-44
2022/10/26 12:16:50;;;;;;;7.72;2.90;;;20.20;99.90;;;;;;5043348;28;20108;-44
2022/10/26 12:19:54;;;;;;;9.07;3.35;;;20.00;99.90;;;;;;5032322;28;20094;-44
2022/10/26 12:22:27;;;;;;;8.20;3.20;;;19.90;99.90;;;;;;5005778;28;20450;-44
2022/10/26 12:25:05;;;;;;;7.95;3.10;;;19.70;99.90;;;;;;5041617;28;20534;-47
2022/10/26 12:27:34;;;;;;;8.52;3.13;;;19.70;99.90;;;;;;5042690;28;20036;-47
2022/10/26 12:30:18;;;;;;;9.32;3.20;;;19.90;99.90;;;;;;5042157;28;20036;-45
2022/10/26 12:32:43;;;;;;;8.60;3.67;;;19.80;99.90;;;;;;5044038;28;20040;-45
2022/10/26 12:35:32;;;;;;;9.43;3.28;;;19.50;99.90;;;;;;5043814;28;20025;-45
2022/10/26 12:37:59;;;;;;;8.15;3.45;;;19.40;99.90;;;;;;5036359;28;20052;-44
2022/10/26 12:40:33;;;;;;;9.18;3.70;;;19.30;99.90;;;;;;5042943;28;20082;-47
2022/10/26 12:43:16;;;;;;;7.68;3.35;;;19.20;99.90;;;;;;5043488;28;20078;-45
2022/10/26 12:45:44;;;;;;;9.88;3.55;;;19.00;99.90;;;;;;5043758;28;20040;-43
2022/10/26 12:48:37;;;;;;;9.63;4.00;;;19.00;99.90;;;;;;5043429;28;20033;-45
2022/10/26 12:51:21;;;;;;;8.95;3.78;;;18.80;99.90;;;;;;5042486;28;20598;-46
2022/10/26 12:54:05;;;;;;;9.02;3.78;;;18.50;99.90;;;;;;5043648;28;20072;-45
2022/10/26 12:56:52;;;;;;;6.60;3.23;;;18.80;99.90;;;;;;5043132;28;20060;-44
2022/10/26 12:59:34;;;;;;;9.73;3.72;;;18.70;99.90;;;;;;5042347;28;20362;-46